sensor_id;sensor_type;location;lat;lon;timestamp;pressure;altitude;pressure_sealevel;temperature;humidity
77153;BME280;66124;51.146;17.072;2023-01-29T00:02:04;101347.84;;;-1.11;74.55
77153;BME280;66124;51.146;17.072;2023-01-29T00:04:34;101351.81;;;-1.15;74.61
77153;BME280;66124;51.146;17.072;2023-01-29T00:07:03;101351.46;;;-1.18;74.63
77153;BME280;66124;51.146;17.072;2023-01-29T00:09:32;101350.54;;;-1.20;74.56
77153;BME280;66124;51.146;17.072;2023-01-29T00:12:02;101348.38;;;-1.22;74.64
77153;BME280;66124;51.146;17.072;2023-01-29T00:14:31;101345.34;;;-1.23;74.60
77153;BME280;66124;51.146;17.072;2023-01-29T00:17:01;101340.85;;;-1.23;74.51
77153;BME280;66124;51.146;17.072;2023-01-29T00:19:30;101341.20;;;-1.23;74.75
77153;BME280;66124;51.146;17.072;2023-01-29T00:22:00;101341.69;;;-1.22;74.67
77153;BME280;66124;51.146;17.072;2023-01-29T00:24:29;101337.08;;;-1.23;74.50
77153;BME280;66124;51.146;17.072;2023-01-29T00:26:58;101331.23;;;-1.27;74.72
77153;BME280;66124;51.146;17.072;2023-01-29T00:29:28;101324.02;;;-1.28;74.56
77153;BME280;66124;51.146;17.072;2023-01-29T00:31:57;101321.08;;;-1.31;74.70
77153;BME280;66124;51.146;17.072;2023-01-29T00:34:27;101323.08;;;-1.33;74.63
77153;BME280;66124;51.146;17.072;2023-01-29T00:36:56;101319.94;;;-1.35;74.76
77153;BME280;66124;51.146;17.072;2023-01-29T00:39:26;101318.40;;;-1.36;74.62
77153;BME280;66124;51.146;17.072;2023-01-29T00:41:55;101313.44;;;-1.36;74.58
77153;BME280;66124;51.146;17.072;2023-01-29T00:44:24;101305.73;;;-1.38;74.80
77153;BME280;66124;51.146;17.072;2023-01-29T00:46:54;101306.46;;;-1.38;74.57
77153;BME280;66124;51.146;17.072;2023-01-29T00:49:21;101300.05;;;-1.38;74.61
77153;BME280;66124;51.146;17.072;2023-01-29T00:56:58;101287.44;;;-1.37;74.67
77153;BME280;66124;51.146;17.072;2023-01-29T00:59:27;101282.95;;;-1.41;74.77
77153;BME280;66124;51.146;17.072;2023-01-29T01:01:56;101273.23;;;-1.43;74.93
77153;BME280;66124;51.146;17.072;2023-01-29T01:04:26;101269.27;;;-1.46;74.97
77153;BME280;66124;51.146;17.072;2023-01-29T01:06:55;101273.42;;;-1.50;74.93
77153;BME280;66124;51.146;17.072;2023-01-29T01:09:24;101273.91;;;-1.53;75.21
77153;BME280;66124;51.146;17.072;2023-01-29T01:11:54;101273.00;;;-1.55;75.15
77153;BME280;66124;51.146;17.072;2023-01-29T01:14:23;101270.95;;;-1.59;75.25
77153;BME280;66124;51.146;17.072;2023-01-29T01:16:52;101266.04;;;-1.60;75.16
77153;BME280;66124;51.146;17.072;2023-01-29T01:19:22;101261.22;;;-1.61;75.34
77153;BME280;66124;51.146;17.072;2023-01-29T01:21:51;101256.55;;;-1.61;75.30
77153;BME280;66124;51.146;17.072;2023-01-29T01:24:20;101261.02;;;-1.60;75.37
77153;BME280;66124;51.146;17.072;2023-01-29T01:26:50;101264.36;;;-1.58;75.35
77153;BME280;66124;51.146;17.072;2023-01-29T01:29:19;101266.61;;;-1.55;75.51
77153;BME280;66124;51.146;17.072;2023-01-29T01:31:48;101267.00;;;-1.53;75.45
77153;BME280;66124;51.146;17.072;2023-01-29T01:34:18;101263.66;;;-1.52;75.48
77153;BME280;66124;51.146;17.072;2023-01-29T01:36:47;101260.48;;;-1.50;75.65
77153;BME280;66124;51.146;17.072;2023-01-29T01:39:17;101265.20;;;-1.48;75.51
77153;BME280;66124;51.146;17.072;2023-01-29T01:41:46;101266.11;;;-1.46;75.63
77153;BME280;66124;51.146;17.072;2023-01-29T01:47:16;101253.06;;;-1.39;75.74
77153;BME280;66124;51.146;17.072;2023-01-29T01:49:48;101251.20;;;-1.36;75.61
77153;BME280;66124;51.146;17.072;2023-01-29T01:52:19;101252.13;;;-1.35;75.75
77153;BME280;66124;51.146;17.072;2023-01-29T01:54:50;101251.06;;;-1.34;75.84
77153;BME280;66124;51.146;17.072;2023-01-29T01:57:22;101242.36;;;-1.33;75.82
77153;BME280;66124;51.146;17.072;2023-01-29T01:59:56;101236.03;;;-1.31;75.62
77153;BME280;66124;51.146;17.072;2023-01-29T02:02:28;101236.46;;;-1.29;75.71
77153;BME280;66124;51.146;17.072;2023-01-29T02:04:58;101237.98;;;-1.28;75.70
77153;BME280;66124;51.146;17.072;2023-01-29T02:07:27;101242.21;;;-1.27;75.66
77153;BME280;66124;51.146;17.072;2023-01-29T02:09:57;101244.02;;;-1.25;75.60
77153;BME280;66124;51.146;17.072;2023-01-29T02:17:45;101254.15;;;-1.18;75.45
77153;BME280;66124;51.146;17.072;2023-01-29T02:20:19;101260.32;;;-1.17;75.36
77153;BME280;66124;51.146;17.072;2023-01-29T02:26:08;101257.02;;;-1.13;75.30
77153;BME280;66124;51.146;17.072;2023-01-29T02:28:45;101253.98;;;-1.11;75.42
77153;BME280;66124;51.146;17.072;2023-01-29T02:31:23;101257.98;;;-1.08;75.34
77153;BME280;66124;51.146;17.072;2023-01-29T02:34:04;101255.55;;;-1.05;75.38
77153;BME280;66124;51.146;17.072;2023-01-29T02:36:43;101257.52;;;-1.03;75.43
77153;BME280;66124;51.146;17.072;2023-01-29T02:39:16;101260.16;;;-1.01;74.98
77153;BME280;66124;51.146;17.072;2023-01-29T02:41:57;101259.65;;;-1.01;74.95
77153;BME280;66124;51.146;17.072;2023-01-29T02:44:32;101260.36;;;-1.01;74.85
77153;BME280;66124;51.146;17.072;2023-01-29T02:47:07;101258.63;;;-1.01;74.72
77153;BME280;66124;51.146;17.072;2023-01-29T02:49:44;101262.41;;;-1.01;74.66
77153;BME280;66124;51.146;17.072;2023-01-29T02:52:20;101258.09;;;-1.01;74.65
77153;BME280;66124;51.146;17.072;2023-01-29T02:54:54;101254.52;;;-0.99;74.60
77153;BME280;66124;51.146;17.072;2023-01-29T02:57:30;101258.30;;;-0.99;74.27
77153;BME280;66124;51.146;17.072;2023-01-29T03:00:05;101249.11;;;-1.01;74.08
77153;BME280;66124;51.146;17.072;2023-01-29T03:02:43;101252.39;;;-1.01;74.20
77153;BME280;66124;51.146;17.072;2023-01-29T03:05:19;101259.65;;;-1.01;74.20
77153;BME280;66124;51.146;17.072;2023-01-29T03:07:54;101258.09;;;-1.01;74.16
77153;BME280;66124;51.146;17.072;2023-01-29T03:10:29;101256.58;;;-1.02;73.84
77153;BME280;66124;51.146;17.072;2023-01-29T03:13:05;101257.20;;;-1.03;73.66
77153;BME280;66124;51.146;17.072;2023-01-29T03:15:40;101252.27;;;-1.05;73.42
77153;BME280;66124;51.146;17.072;2023-01-29T03:18:13;101249.71;;;-1.05;73.36
77153;BME280;66124;51.146;17.072;2023-01-29T03:20:43;101240.67;;;-1.07;73.55
77153;BME280;66124;51.146;17.072;2023-01-29T03:23:17;101238.23;;;-1.11;73.25
77153;BME280;66124;51.146;17.072;2023-01-29T03:25:51;101234.17;;;-1.12;73.41
77153;BME280;66124;51.146;17.072;2023-01-29T03:28:21;101236.52;;;-1.14;73.11
77153;BME280;66124;51.146;17.072;2023-01-29T03:30:51;101236.48;;;-1.16;73.06
77153;BME280;66124;51.146;17.072;2023-01-29T03:37:20;101249.90;;;-1.12;72.85
77153;BME280;66124;51.146;17.072;2023-01-29T03:39:52;101249.26;;;-1.13;72.83
77153;BME280;66124;51.146;17.072;2023-01-29T03:42:25;101247.04;;;-1.10;72.77
77153;BME280;66124;51.146;17.072;2023-01-29T03:44:59;101246.14;;;-1.10;72.58
77153;BME280;66124;51.146;17.072;2023-01-29T03:47:41;101240.77;;;-1.09;72.69
77153;BME280;66124;51.146;17.072;2023-01-29T03:50:21;101238.61;;;-1.11;72.42
77153;BME280;66124;51.146;17.072;2023-01-29T03:52:58;101233.94;;;-1.10;72.41
77153;BME280;66124;51.146;17.072;2023-01-29T03:55:35;101224.77;;;-1.10;72.58
77153;BME280;66124;51.146;17.072;2023-01-29T03:58:12;101226.30;;;-1.10;72.31
77153;BME280;66124;51.146;17.072;2023-01-29T04:00:50;101221.86;;;-1.10;72.32
77153;BME280;66124;51.146;17.072;2023-01-29T04:03:23;101224.59;;;-1.10;72.41
77153;BME280;66124;51.146;17.072;2023-01-29T04:05:59;101217.34;;;-1.10;72.27
77153;BME280;66124;51.146;17.072;2023-01-29T04:08:34;101216.59;;;-1.09;72.20
77153;BME280;66124;51.146;17.072;2023-01-29T04:11:08;101217.16;;;-1.07;72.10
77153;BME280;66124;51.146;17.072;2023-01-29T04:13:40;101220.55;;;-1.06;72.17
77153;BME280;66124;51.146;17.072;2023-01-29T04:16:13;101212.93;;;-1.05;72.16
77153;BME280;66124;51.146;17.072;2023-01-29T04:18:46;101215.03;;;-1.05;72.03
77153;BME280;66124;51.146;17.072;2023-01-29T04:21:16;101215.36;;;-1.05;72.07
77153;BME280;66124;51.146;17.072;2023-01-29T04:23:47;101212.61;;;-1.06;71.91
77153;BME280;66124;51.146;17.072;2023-01-29T04:26:45;101213.48;;;-1.05;72.09
77153;BME280;66124;51.146;17.072;2023-01-29T04:29:27;101206.67;;;-1.07;72.14
77153;BME280;66124;51.146;17.072;2023-01-29T04:32:02;101200.86;;;-1.08;71.87
77153;BME280;66124;51.146;17.072;2023-01-29T04:34:43;101201.00;;;-1.11;72.13
77153;BME280;66124;51.146;17.072;2023-01-29T04:37:22;101196.52;;;-1.14;72.17
77153;BME280;66124;51.146;17.072;2023-01-29T04:39:57;101190.52;;;-1.15;72.29
77153;BME280;66124;51.146;17.072;2023-01-29T04:42:36;101185.96;;;-1.16;72.29
77153;BME280;66124;51.146;17.072;2023-01-29T04:45:17;101181.22;;;-1.18;72.30
77153;BME280;66124;51.146;17.072;2023-01-29T04:47:47;101175.58;;;-1.19;72.38
77153;BME280;66124;51.146;17.072;2023-01-29T04:50:19;101163.84;;;-1.22;72.59
77153;BME280;66124;51.146;17.072;2023-01-29T04:54:25;101166.27;;;-1.23;72.67
77153;BME280;66124;51.146;17.072;2023-01-29T04:57:04;101171.97;;;-1.26;72.44
77153;BME280;66124;51.146;17.072;2023-01-29T04:59:41;101165.13;;;-1.27;72.67
77153;BME280;66124;51.146;17.072;2023-01-29T05:02:13;101165.82;;;-1.27;72.63
77153;BME280;66124;51.146;17.072;2023-01-29T05:04:44;101172.71;;;-1.27;72.69
77153;BME280;66124;51.146;17.072;2023-01-29T05:07:15;101166.51;;;-1.27;72.85
77153;BME280;66124;51.146;17.072;2023-01-29T05:09:46;101166.42;;;-1.25;72.67
77153;BME280;66124;51.146;17.072;2023-01-29T05:12:17;101162.02;;;-1.27;72.64
77153;BME280;66124;51.146;17.072;2023-01-29T05:14:47;101161.04;;;-1.28;72.58
77153;BME280;66124;51.146;17.072;2023-01-29T05:17:19;101159.77;;;-1.30;72.71
77153;BME280;66124;51.146;17.072;2023-01-29T05:19:49;101155.80;;;-1.30;72.74
77153;BME280;66124;51.146;17.072;2023-01-29T05:22:19;101152.04;;;-1.30;72.79
77153;BME280;66124;51.146;17.072;2023-01-29T05:24:49;101152.80;;;-1.32;72.75
77153;BME280;66124;51.146;17.072;2023-01-29T05:27:21;101153.64;;;-1.31;72.75
77153;BME280;66124;51.146;17.072;2023-01-29T05:29:51;101151.84;;;-1.30;72.74
77153;BME280;66124;51.146;17.072;2023-01-29T05:32:20;101147.90;;;-1.30;72.71
77153;BME280;66124;51.146;17.072;2023-01-29T05:34:50;101145.05;;;-1.32;72.83
77153;BME280;66124;51.146;17.072;2023-01-29T05:37:19;101143.40;;;-1.33;72.95
77153;BME280;66124;51.146;17.072;2023-01-29T05:39:48;101146.08;;;-1.35;72.80
77153;BME280;66124;51.146;17.072;2023-01-29T05:42:18;101147.65;;;-1.35;72.85
77153;BME280;66124;51.146;17.072;2023-01-29T05:44:47;101146.16;;;-1.37;72.78
77153;BME280;66124;51.146;17.072;2023-01-29T05:47:20;101149.63;;;-1.37;72.96
77153;BME280;66124;51.146;17.072;2023-01-29T05:49:49;101149.14;;;-1.37;72.93
77153;BME280;66124;51.146;17.072;2023-01-29T05:52:19;101140.52;;;-1.37;72.63
77153;BME280;66124;51.146;17.072;2023-01-29T05:54:48;101136.64;;;-1.39;72.61
77153;BME280;66124;51.146;17.072;2023-01-29T05:57:18;101136.75;;;-1.42;72.49
77153;BME280;66124;51.146;17.072;2023-01-29T05:59:47;101135.52;;;-1.44;72.45
77153;BME280;66124;51.146;17.072;2023-01-29T06:02:15;101141.17;;;-1.47;72.47
77153;BME280;66124;51.146;17.072;2023-01-29T06:04:43;101142.27;;;-1.48;72.49
77153;BME280;66124;51.146;17.072;2023-01-29T06:07:11;101141.23;;;-1.48;72.64
77153;BME280;66124;51.146;17.072;2023-01-29T06:14:47;101146.45;;;-1.46;72.63
77153;BME280;66124;51.146;17.072;2023-01-29T06:17:16;101144.71;;;-1.48;72.47
77153;BME280;66124;51.146;17.072;2023-01-29T06:19:45;101145.29;;;-1.49;72.40
77153;BME280;66124;51.146;17.072;2023-01-29T06:22:15;101140.67;;;-1.50;72.27
77153;BME280;66124;51.146;17.072;2023-01-29T06:24:44;101136.44;;;-1.52;72.38
77153;BME280;66124;51.146;17.072;2023-01-29T06:27:14;101139.97;;;-1.53;72.52
77153;BME280;66124;51.146;17.072;2023-01-29T06:29:43;101142.98;;;-1.55;72.43
77153;BME280;66124;51.146;17.072;2023-01-29T06:32:12;101147.90;;;-1.56;72.39
77153;BME280;66124;51.146;17.072;2023-01-29T06:34:42;101154.67;;;-1.57;72.54
77153;BME280;66124;51.146;17.072;2023-01-29T06:37:11;101155.79;;;-1.59;72.48
77153;BME280;66124;51.146;17.072;2023-01-29T06:39:40;101161.36;;;-1.60;72.63
77153;BME280;66124;51.146;17.072;2023-01-29T06:42:10;101165.98;;;-1.59;72.52
77153;BME280;66124;51.146;17.072;2023-01-29T06:44:39;101167.03;;;-1.60;72.67
77153;BME280;66124;51.146;17.072;2023-01-29T06:47:09;101174.55;;;-1.62;72.51
77153;BME280;66124;51.146;17.072;2023-01-29T06:49:38;101176.33;;;-1.62;72.52
77153;BME280;66124;51.146;17.072;2023-01-29T06:52:07;101182.91;;;-1.63;72.68
77153;BME280;66124;51.146;17.072;2023-01-29T06:54:36;101185.19;;;-1.64;72.75
77153;BME280;66124;51.146;17.072;2023-01-29T06:57:06;101190.86;;;-1.64;72.76
77153;BME280;66124;51.146;17.072;2023-01-29T06:59:35;101198.14;;;-1.65;72.74
77153;BME280;66124;51.146;17.072;2023-01-29T07:02:05;101198.79;;;-1.64;72.70
77153;BME280;66124;51.146;17.072;2023-01-29T07:04:34;101195.73;;;-1.61;72.76
77153;BME280;66124;51.146;17.072;2023-01-29T07:07:04;101200.96;;;-1.59;72.70
77153;BME280;66124;51.146;17.072;2023-01-29T07:09:33;101203.10;;;-1.57;73.00
77153;BME280;66124;51.146;17.072;2023-01-29T07:12:04;101204.78;;;-1.56;72.71
77153;BME280;66124;51.146;17.072;2023-01-29T07:14:33;101206.81;;;-1.55;72.91
77153;BME280;66124;51.146;17.072;2023-01-29T07:17:03;101211.13;;;-1.56;72.67
77153;BME280;66124;51.146;17.072;2023-01-29T07:19:32;101212.55;;;-1.56;72.78
77153;BME280;66124;51.146;17.072;2023-01-29T07:22:01;101212.05;;;-1.57;72.63
77153;BME280;66124;51.146;17.072;2023-01-29T07:24:29;101216.56;;;-1.57;72.64
77153;BME280;66124;51.146;17.072;2023-01-29T07:26:57;101219.85;;;-1.58;72.64
77153;BME280;66124;51.146;17.072;2023-01-29T07:32:30;101213.17;;;-1.52;72.67
77153;BME280;66124;51.146;17.072;2023-01-29T07:35:00;101203.02;;;-1.52;72.56
77153;BME280;66124;51.146;17.072;2023-01-29T07:37:30;101206.95;;;-1.52;72.55
77153;BME280;66124;51.146;17.072;2023-01-29T07:39:59;101208.61;;;-1.51;72.74
77153;BME280;66124;51.146;17.072;2023-01-29T07:42:28;101208.11;;;-1.47;72.62
77153;BME280;66124;51.146;17.072;2023-01-29T07:44:59;101201.48;;;-1.46;72.53
77153;BME280;66124;51.146;17.072;2023-01-29T07:47:28;101201.96;;;-1.42;72.50
77153;BME280;66124;51.146;17.072;2023-01-29T07:49:58;101201.67;;;-1.39;72.44
77153;BME280;66124;51.146;17.072;2023-01-29T07:52:27;101208.66;;;-1.38;72.38
77153;BME280;66124;51.146;17.072;2023-01-29T07:54:57;101217.14;;;-1.35;72.43
77153;BME280;66124;51.146;17.072;2023-01-29T07:57:26;101210.80;;;-1.33;72.27
77153;BME280;66124;51.146;17.072;2023-01-29T07:59:56;101199.92;;;-1.32;72.15
77153;BME280;66124;51.146;17.072;2023-01-29T08:02:25;101184.74;;;-1.32;71.98
77153;BME280;66124;51.146;17.072;2023-01-29T08:04:55;101180.82;;;-1.33;72.08
77153;BME280;66124;51.146;17.072;2023-01-29T08:07:25;101166.34;;;-1.43;71.94
77153;BME280;66124;51.146;17.072;2023-01-29T08:09:54;101180.61;;;-1.32;72.07
77153;BME280;66124;51.146;17.072;2023-01-29T08:12:24;101176.15;;;-1.33;71.95
77153;BME280;66124;51.146;17.072;2023-01-29T08:14:53;101180.52;;;-1.31;71.80
77153;BME280;66124;51.146;17.072;2023-01-29T08:17:23;101179.04;;;-1.29;72.01
77153;BME280;66124;51.146;17.072;2023-01-29T08:19:52;101179.11;;;-1.27;72.04
77153;BME280;66124;51.146;17.072;2023-01-29T08:22:21;101178.52;;;-1.26;71.96
77153;BME280;66124;51.146;17.072;2023-01-29T08:24:51;101174.14;;;-1.24;72.08
77153;BME280;66124;51.146;17.072;2023-01-29T08:27:20;101176.98;;;-1.23;72.27
77153;BME280;66124;51.146;17.072;2023-01-29T08:29:50;101167.38;;;-1.21;72.06
77153;BME280;66124;51.146;17.072;2023-01-29T08:32:19;101161.28;;;-1.20;71.87
77153;BME280;66124;51.146;17.072;2023-01-29T08:34:49;101157.02;;;-1.20;71.98
77153;BME280;66124;51.146;17.072;2023-01-29T08:37:18;101147.97;;;-1.19;71.88
77153;BME280;66124;51.146;17.072;2023-01-29T08:39:48;101142.00;;;-1.20;71.96
77153;BME280;66124;51.146;17.072;2023-01-29T08:42:17;101139.70;;;-1.19;72.17
77153;BME280;66124;51.146;17.072;2023-01-29T08:44:45;101138.13;;;-1.16;72.11
77153;BME280;66124;51.146;17.072;2023-01-29T08:48:50;101127.70;;;-1.08;71.98
77153;BME280;66124;51.146;17.072;2023-01-29T08:51:20;101129.34;;;-1.07;71.89
77153;BME280;66124;51.146;17.072;2023-01-29T08:53:50;101133.80;;;-1.03;72.16
77153;BME280;66124;51.146;17.072;2023-01-29T08:56:19;101124.54;;;-0.98;71.84
77153;BME280;66124;51.146;17.072;2023-01-29T08:58:49;101125.35;;;-0.94;71.83
77153;BME280;66124;51.146;17.072;2023-01-29T09:01:20;101130.42;;;-0.92;71.66
77153;BME280;66124;51.146;17.072;2023-01-29T09:03:49;101133.95;;;-0.93;71.92
77153;BME280;66124;51.146;17.072;2023-01-29T09:06:19;101135.72;;;-0.91;71.93
77153;BME280;66124;51.146;17.072;2023-01-29T09:08:48;101129.40;;;-0.89;71.81
77153;BME280;66124;51.146;17.072;2023-01-29T09:11:17;101131.16;;;-0.90;71.62
77153;BME280;66124;51.146;17.072;2023-01-29T09:13:47;101141.77;;;-0.91;71.63
77153;BME280;66124;51.146;17.072;2023-01-29T09:16:19;101150.64;;;-0.90;71.82
77153;BME280;66124;51.146;17.072;2023-01-29T09:18:48;101151.65;;;-0.86;71.84
77153;BME280;66124;51.146;17.072;2023-01-29T09:21:18;101148.84;;;-0.82;71.78
77153;BME280;66124;51.146;17.072;2023-01-29T09:23:47;101147.45;;;-0.79;71.65
77153;BME280;66124;51.146;17.072;2023-01-29T09:26:17;101143.34;;;-0.76;71.42
77153;BME280;66124;51.146;17.072;2023-01-29T09:28:46;101141.60;;;-0.73;71.34
77153;BME280;66124;51.146;17.072;2023-01-29T09:31:15;101138.62;;;-0.68;71.58
77153;BME280;66124;51.146;17.072;2023-01-29T09:33:45;101140.63;;;-0.67;71.23
77153;BME280;66124;51.146;17.072;2023-01-29T09:36:14;101137.50;;;-0.67;71.25
77153;BME280;66124;51.146;17.072;2023-01-29T09:38:43;101137.11;;;-0.66;71.46
77153;BME280;66124;51.146;17.072;2023-01-29T09:41:25;101135.45;;;-0.65;71.17
77153;BME280;66124;51.146;17.072;2023-01-29T09:44:01;101133.61;;;-0.62;71.07
77153;BME280;66124;51.146;17.072;2023-01-29T09:46:37;101132.94;;;-0.57;71.21
77153;BME280;66124;51.146;17.072;2023-01-29T09:49:14;101126.67;;;-0.50;71.30
77153;BME280;66124;51.146;17.072;2023-01-29T09:51:47;101117.83;;;-0.40;71.32
77153;BME280;66124;51.146;17.072;2023-01-29T09:54:20;101107.40;;;-0.30;70.98
77153;BME280;66124;51.146;17.072;2023-01-29T09:56:53;101101.63;;;-0.26;71.12
77153;BME280;66124;51.146;17.072;2023-01-29T09:59:25;101094.86;;;-0.23;70.75
77153;BME280;66124;51.146;17.072;2023-01-29T10:01:58;101094.75;;;-0.18;70.74
77153;BME280;66124;51.146;17.072;2023-01-29T10:09:52;101079.28;;;0.18;70.90
77153;BME280;66124;51.146;17.072;2023-01-29T10:12:37;101076.35;;;0.31;70.71
77153;BME280;66124;51.146;17.072;2023-01-29T10:15:21;101068.45;;;0.42;70.43
77153;BME280;66124;51.146;17.072;2023-01-29T10:18:08;101065.29;;;0.43;70.38
77153;BME280;66124;51.146;17.072;2023-01-29T10:20:56;101060.64;;;0.42;69.91
77153;BME280;66124;51.146;17.072;2023-01-29T10:23:29;101061.35;;;0.42;70.10
77153;BME280;66124;51.146;17.072;2023-01-29T10:26:00;101044.42;;;0.36;69.89
77153;BME280;66124;51.146;17.072;2023-01-29T10:28:32;101047.27;;;0.43;70.18
77153;BME280;66124;51.146;17.072;2023-01-29T10:31:09;101042.30;;;0.45;69.98
77153;BME280;66124;51.146;17.072;2023-01-29T10:33:42;101042.25;;;0.48;70.26
77153;BME280;66124;51.146;17.072;2023-01-29T10:36:15;101045.33;;;0.55;70.14
77153;BME280;66124;51.146;17.072;2023-01-29T10:38:48;101045.54;;;0.59;70.12
77153;BME280;66124;51.146;17.072;2023-01-29T10:41:29;101044.19;;;0.61;69.94
77153;BME280;66124;51.146;17.072;2023-01-29T10:44:19;101043.20;;;0.67;70.09
77153;BME280;66124;51.146;17.072;2023-01-29T10:47:10;101039.99;;;0.71;69.83
77153;BME280;66124;51.146;17.072;2023-01-29T10:49:59;101039.04;;;0.75;69.83
77153;BME280;66124;51.146;17.072;2023-01-29T10:52:41;101043.08;;;0.77;69.79
77153;BME280;66124;51.146;17.072;2023-01-29T10:55:23;101028.85;;;0.72;69.96
77153;BME280;66124;51.146;17.072;2023-01-29T10:58:06;101036.13;;;0.80;69.99
77153;BME280;66124;51.146;17.072;2023-01-29T11:00:41;101027.02;;;0.82;70.00
77153;BME280;66124;51.146;17.072;2023-01-29T11:03:15;101018.20;;;0.82;69.97
77153;BME280;66124;51.146;17.072;2023-01-29T11:05:51;101015.87;;;0.83;70.19
77153;BME280;66124;51.146;17.072;2023-01-29T11:08:25;101017.39;;;0.86;70.44
77153;BME280;66124;51.146;17.072;2023-01-29T11:11:03;101002.65;;;0.81;70.18
77153;BME280;66124;51.146;17.072;2023-01-29T11:13:37;100998.93;;;0.85;70.41
77153;BME280;66124;51.146;17.072;2023-01-29T11:16:10;101004.34;;;0.95;70.36
77153;BME280;66124;51.146;17.072;2023-01-29T11:18:57;100999.30;;;0.98;70.19
77153;BME280;66124;51.146;17.072;2023-01-29T11:21:25;100998.41;;;0.98;70.26
77153;BME280;66124;51.146;17.072;2023-01-29T11:27:20;100998.27;;;1.00;70.17
77153;BME280;66124;51.146;17.072;2023-01-29T11:29:51;100998.77;;;0.96;70.10
77153;BME280;66124;51.146;17.072;2023-01-29T11:32:29;100996.35;;;0.95;70.33
77153;BME280;66124;51.146;17.072;2023-01-29T11:35:03;100988.18;;;0.96;70.58
77153;BME280;66124;51.146;17.072;2023-01-29T11:37:35;100984.55;;;0.98;70.67
77153;BME280;66124;51.146;17.072;2023-01-29T11:43:12;100970.25;;;1.03;70.70
77153;BME280;66124;51.146;17.072;2023-01-29T11:45:46;100969.77;;;1.10;70.57
77153;BME280;66124;51.146;17.072;2023-01-29T11:48:18;100959.62;;;1.14;70.53
77153;BME280;66124;51.146;17.072;2023-01-29T11:50:51;100956.14;;;1.17;70.83
77153;BME280;66124;51.146;17.072;2023-01-29T11:53:34;100949.50;;;1.18;70.92
77153;BME280;66124;51.146;17.072;2023-01-29T11:56:17;100944.77;;;1.21;71.11
77153;BME280;66124;51.146;17.072;2023-01-29T11:58:50;100931.56;;;1.22;71.32
77153;BME280;66124;51.146;17.072;2023-01-29T12:01:30;100923.34;;;1.18;71.30
77153;BME280;66124;51.146;17.072;2023-01-29T12:04:01;100922.98;;;1.20;71.21
77153;BME280;66124;51.146;17.072;2023-01-29T12:06:35;100920.09;;;1.20;71.62
77153;BME280;66124;51.146;17.072;2023-01-29T12:09:14;100920.45;;;1.22;71.73
77153;BME280;66124;51.146;17.072;2023-01-29T12:11:44;100917.80;;;1.23;71.60
77153;BME280;66124;51.146;17.072;2023-01-29T12:14:27;100917.61;;;1.23;71.89
77153;BME280;66124;51.146;17.072;2023-01-29T12:17:00;100906.27;;;1.24;72.12
77153;BME280;66124;51.146;17.072;2023-01-29T12:19:35;100899.91;;;1.26;72.37
77153;BME280;66124;51.146;17.072;2023-01-29T12:22:13;100882.63;;;1.26;72.55
77153;BME280;66124;51.146;17.072;2023-01-29T12:24:51;100883.58;;;1.24;72.65
77153;BME280;66124;51.146;17.072;2023-01-29T12:27:26;100857.36;;;1.13;72.70
77153;BME280;66124;51.146;17.072;2023-01-29T12:30:04;100872.63;;;1.25;72.86
77153;BME280;66124;51.146;17.072;2023-01-29T12:32:42;100877.71;;;1.22;73.38
77153;BME280;66124;51.146;17.072;2023-01-29T12:35:18;100869.77;;;1.19;73.47
77153;BME280;66124;51.146;17.072;2023-01-29T12:37:55;100866.63;;;1.19;73.88
77153;BME280;66124;51.146;17.072;2023-01-29T12:47:39;100863.93;;;1.28;74.02
77153;BME280;66124;51.146;17.072;2023-01-29T12:50:20;100860.48;;;1.28;73.83
77153;BME280;66124;51.146;17.072;2023-01-29T12:52:55;100854.23;;;1.31;73.95
77153;BME280;66124;51.146;17.072;2023-01-29T12:55:29;100854.95;;;1.33;74.01
77153;BME280;66124;51.146;17.072;2023-01-29T12:58:04;100845.15;;;1.34;73.97
77153;BME280;66124;51.146;17.072;2023-01-29T13:00:41;100836.30;;;1.37;74.06
77153;BME280;66124;51.146;17.072;2023-01-29T13:03:20;100831.70;;;1.40;73.77
77153;BME280;66124;51.146;17.072;2023-01-29T13:05:53;100826.73;;;1.43;73.93
77153;BME280;66124;51.146;17.072;2023-01-29T13:08:28;100822.89;;;1.43;73.68
77153;BME280;66124;51.146;17.072;2023-01-29T13:11:01;100818.41;;;1.45;73.63
77153;BME280;66124;51.146;17.072;2023-01-29T13:13:35;100820.37;;;1.49;73.66
77153;BME280;66124;51.146;17.072;2023-01-29T13:16:11;100825.27;;;1.53;73.59
77153;BME280;66124;51.146;17.072;2023-01-29T13:18:45;100833.63;;;1.58;73.22
77153;BME280;66124;51.146;17.072;2023-01-29T13:21:18;100838.45;;;1.63;73.17
77153;BME280;66124;51.146;17.072;2023-01-29T13:23:52;100835.13;;;1.68;73.07
77153;BME280;66124;51.146;17.072;2023-01-29T13:26:23;100830.25;;;1.73;73.16
77153;BME280;66124;51.146;17.072;2023-01-29T13:28:53;100825.23;;;1.78;73.05
77153;BME280;66124;51.146;17.072;2023-01-29T13:31:28;100827.75;;;1.82;72.78
77153;BME280;66124;51.146;17.072;2023-01-29T13:34:06;100827.89;;;1.84;72.64
77153;BME280;66124;51.146;17.072;2023-01-29T13:36:39;100828.25;;;1.87;72.68
77153;BME280;66124;51.146;17.072;2023-01-29T13:39:21;100827.20;;;1.89;72.89
77153;BME280;66124;51.146;17.072;2023-01-29T13:41:52;100822.14;;;1.87;72.71
77153;BME280;66124;51.146;17.072;2023-01-29T13:44:25;100821.46;;;1.85;72.44
77153;BME280;66124;51.146;17.072;2023-01-29T13:46:57;100824.70;;;1.85;72.64
77153;BME280;66124;51.146;17.072;2023-01-29T13:49:30;100821.96;;;1.82;72.33
77153;BME280;66124;51.146;17.072;2023-01-29T13:52:15;100817.45;;;1.78;72.72
77153;BME280;66124;51.146;17.072;2023-01-29T13:54:50;100812.02;;;1.77;72.52
77153;BME280;66124;51.146;17.072;2023-01-29T14:00:05;100806.65;;;1.74;72.54
77153;BME280;66124;51.146;17.072;2023-01-29T14:07:50;100803.00;;;1.81;72.79
77153;BME280;66124;51.146;17.072;2023-01-29T14:10:22;100802.23;;;1.80;72.91